createdAt,value
2022-09-02T00:04:25.684Z,2.53
2022-09-02T00:06:54.791Z,2.30
2022-09-02T00:09:24.822Z,2.05
2022-09-02T00:14:32.025Z,2.63
2022-09-02T00:17:02.104Z,2.40
2022-09-02T00:19:32.831Z,2.30
2022-09-02T00:22:04.756Z,2.00
2022-09-02T00:29:32.807Z,2.00
2022-09-02T00:32:01.456Z,1.98
2022-09-02T00:34:30.997Z,2.40
2022-09-02T00:37:00.427Z,2.10
2022-09-02T00:39:27.857Z,2.38
2022-09-02T00:41:55.448Z,2.03
2022-09-02T00:44:23.100Z,2.70
2022-09-02T00:52:42.842Z,1.27
2022-09-02T00:55:22.021Z,2.03
2022-09-02T00:57:56.768Z,1.50
2022-09-02T01:00:34.609Z,1.40
2022-09-02T01:03:06.949Z,1.40
2022-09-02T01:05:45.587Z,1.50
2022-09-02T01:08:16.104Z,1.40
2022-09-02T01:13:26.663Z,1.40
2022-09-02T01:16:06.876Z,1.65
2022-09-02T01:18:36.584Z,1.80
2022-09-02T01:21:04.567Z,1.50
2022-09-02T01:23:34.961Z,1.27
2022-09-02T01:26:03.717Z,1.90
2022-09-02T01:28:33.433Z,1.20
2022-09-02T01:33:42.545Z,1.48
2022-09-02T01:36:13.363Z,2.05
2022-09-02T01:38:42.704Z,1.30
2022-09-02T01:41:12.318Z,1.50
2022-09-02T01:43:41.853Z,1.40
2022-09-02T01:46:13.326Z,1.77
2022-09-02T01:48:42.746Z,1.67
2022-09-02T01:55:56.182Z,1.80
2022-09-02T01:58:24.438Z,1.73
2022-09-02T02:00:52.685Z,2.08
2022-09-02T02:03:22.351Z,2.05
2022-09-02T02:05:51.901Z,1.80
2022-09-02T02:08:24.209Z,1.52
2022-09-02T02:10:57.425Z,1.52
2022-09-02T02:17:04.996Z,1.70
2022-09-02T02:19:33.082Z,1.50
2022-09-02T02:22:02.509Z,1.40
2022-09-02T02:24:32.306Z,1.63
2022-09-02T02:27:03.295Z,1.60
2022-09-02T02:29:32.753Z,1.85
2022-09-02T02:32:02.746Z,1.80
2022-09-02T02:34:32.978Z,1.40
2022-09-02T02:42:27.031Z,1.70
2022-09-02T02:44:55.089Z,1.73
2022-09-02T02:47:23.454Z,1.38
2022-09-02T02:49:54.369Z,1.40
2022-09-02T02:52:22.987Z,1.80
2022-09-02T02:54:52.676Z,1.40
2022-09-02T02:57:22.161Z,2.53
2022-09-02T02:59:54.765Z,2.20
2022-09-02T03:07:44.596Z,1.90
2022-09-02T03:10:14.125Z,2.08
2022-09-02T03:12:47.614Z,1.92
2022-09-02T03:15:22.049Z,1.80
2022-09-02T03:17:54.351Z,1.90
2022-09-02T03:20:24.427Z,1.90
2022-09-02T03:22:58.965Z,1.92
2022-09-02T03:33:53.218Z,1.60
2022-09-02T03:36:32.429Z,1.45
2022-09-02T03:39:03.590Z,2.08
2022-09-02T03:41:33.343Z,1.42
2022-09-02T03:44:03.015Z,2.00
2022-09-02T03:46:32.716Z,1.37
2022-09-02T03:54:23.628Z,1.75
2022-09-02T03:56:53.077Z,1.45
2022-09-02T03:59:23.280Z,1.67
2022-09-02T04:01:53.224Z,1.50
2022-09-02T04:04:23.029Z,1.50
2022-09-02T04:06:55.936Z,1.60
2022-09-02T04:09:24.179Z,1.40
2022-09-02T04:14:27.496Z,2.05
2022-09-02T04:16:55.610Z,1.48
2022-09-02T04:19:23.776Z,1.70
2022-09-02T04:21:54.349Z,1.88
2022-09-02T04:24:24.208Z,1.20
2022-09-02T04:26:53.035Z,2.05
2022-09-02T04:29:24.060Z,1.98
2022-09-02T04:31:54.417Z,1.60
2022-09-02T04:39:33.196Z,1.63
2022-09-02T04:42:02.920Z,1.80
2022-09-02T04:44:36.901Z,1.73
2022-09-02T04:47:05.558Z,2.10
2022-09-02T04:49:33.268Z,3.33
2022-09-02T04:52:02.615Z,2.90
2022-09-02T04:54:35.663Z,2.40
2022-09-02T05:01:22.308Z,2.17
2022-09-02T05:03:53.924Z,2.00
2022-09-02T05:06:28.698Z,2.17
2022-09-02T05:09:02.283Z,2.17
2022-09-02T05:11:33.773Z,2.55
2022-09-02T05:14:07.124Z,2.58
2022-09-02T05:16:44.429Z,2.53
2022-09-02T05:22:29.558Z,2.90
2022-09-02T05:25:02.267Z,2.95
2022-09-02T05:27:32.207Z,2.97
2022-09-02T05:30:03.304Z,2.70
2022-09-02T05:32:37.548Z,2.67
2022-09-02T05:35:08.141Z,2.42
2022-09-02T05:37:39.715Z,2.53
2022-09-02T05:42:53.560Z,2.65
2022-09-02T05:45:23.955Z,2.90
2022-09-02T05:47:53.377Z,2.53
2022-09-02T05:50:23.434Z,2.30
2022-09-02T05:52:53.251Z,2.40
2022-09-02T05:55:23.297Z,2.17
2022-09-02T05:57:52.699Z,2.28
2022-09-02T06:00:23.734Z,2.30
2022-09-02T06:06:00.576Z,2.55
2022-09-02T06:08:32.721Z,2.05
2022-09-02T06:11:07.779Z,2.05
2022-09-02T06:13:43.502Z,2.50
2022-09-02T06:16:15.401Z,2.85
2022-09-02T06:18:44.467Z,2.63
2022-09-02T06:21:14.043Z,3.05
2022-09-02T06:31:48.970Z,2.38
2022-09-02T06:34:22.184Z,3.38
2022-09-02T06:36:52.463Z,2.58
2022-09-02T06:39:25.793Z,2.72
2022-09-02T06:41:56.284Z,3.08
2022-09-02T06:44:29.130Z,2.63
2022-09-02T06:47:02.509Z,2.50
2022-09-02T06:49:32.398Z,2.50
2022-09-02T06:57:14.436Z,2.80
2022-09-02T06:59:43.774Z,2.45
2022-09-02T07:02:14.204Z,2.40
2022-09-02T07:05:02.414Z,2.42
2022-09-02T07:07:31.834Z,2.42
2022-09-02T07:10:12.426Z,2.47
2022-09-02T07:12:44.363Z,2.78
2022-09-02T07:19:42.843Z,2.38
2022-09-02T07:22:12.906Z,2.85
2022-09-02T07:24:45.454Z,2.55
2022-09-02T07:27:14.661Z,2.45
2022-09-02T07:29:48.782Z,2.40
2022-09-02T07:32:18.824Z,2.25
2022-09-02T07:34:47.062Z,2.60
2022-09-02T07:45:09.038Z,2.58
2022-09-02T07:47:39.455Z,2.00
2022-09-02T07:52:58.491Z,2.15
2022-09-02T07:55:32.661Z,2.03
2022-09-02T07:58:02.678Z,1.70
2022-09-02T08:00:32.738Z,2.10
2022-09-02T08:07:35.631Z,2.08
2022-09-02T08:10:05.849Z,2.10
2022-09-02T08:12:33.757Z,1.92
2022-09-02T08:15:03.027Z,2.10
2022-09-02T08:17:32.103Z,2.30
2022-09-02T08:20:01.666Z,1.85
2022-09-02T08:22:35.363Z,2.40
2022-09-02T08:32:53.770Z,2.25
2022-09-02T08:35:23.227Z,2.65
2022-09-02T08:37:52.476Z,2.10
2022-09-02T08:40:25.346Z,2.50
2022-09-02T08:42:57.063Z,2.20
2022-09-02T08:45:41.888Z,2.33
2022-09-02T08:53:54.855Z,2.20
2022-09-02T08:56:24.410Z,2.10
2022-09-02T08:58:56.416Z,2.37
2022-09-02T09:01:48.723Z,2.35
2022-09-02T09:04:38.403Z,2.35
2022-09-02T09:07:24.869Z,2.20
2022-09-02T09:10:02.738Z,2.25
2022-09-02T09:18:38.648Z,2.33
2022-09-02T09:21:07.183Z,2.30
2022-09-02T09:23:42.124Z,2.05
2022-09-02T09:26:19.260Z,2.85
2022-09-02T09:28:49.014Z,2.20
2022-09-02T09:31:23.742Z,2.28
2022-09-02T09:36:55.819Z,2.13
2022-09-02T09:39:30.246Z,2.78
2022-09-02T09:42:02.892Z,2.70
2022-09-02T09:44:46.718Z,2.45
2022-09-02T09:47:19.277Z,2.80
2022-09-02T09:49:53.092Z,2.63
2022-09-02T09:52:26.676Z,2.30
2022-09-02T10:00:38.914Z,2.40
2022-09-02T10:03:08.294Z,2.50
2022-09-02T10:05:38.926Z,2.95
2022-09-02T10:08:18.386Z,3.10
2022-09-02T10:11:05.310Z,2.30
2022-09-02T10:13:35.820Z,2.13
2022-09-02T10:24:43.973Z,2.80
2022-09-02T10:27:16.542Z,3.00
2022-09-02T10:29:54.575Z,2.30
2022-09-02T10:32:34.101Z,2.47
2022-09-02T10:35:33.230Z,2.30
2022-09-02T10:38:38.001Z,2.72
2022-09-02T10:41:34.288Z,2.20
2022-09-02T10:50:33.337Z,2.63
2022-09-02T10:53:28.292Z,2.60
2022-09-02T10:56:27.079Z,2.40
2022-09-02T11:01:57.257Z,2.33
2022-09-02T11:04:38.762Z,2.80
2022-09-02T11:15:48.145Z,3.90
2022-09-02T11:18:35.886Z,3.33
2022-09-02T11:21:42.503Z,3.35
2022-09-02T11:24:12.385Z,2.88
2022-09-02T11:26:53.967Z,2.95
2022-09-02T11:29:23.258Z,3.00
2022-09-02T11:31:59.359Z,3.38
2022-09-02T11:40:34.137Z,2.92
2022-09-02T11:43:26.323Z,3.00
2022-09-02T11:46:26.163Z,3.35
2022-09-02T11:49:14.201Z,3.85
2022-09-02T11:52:18.936Z,3.70
2022-09-02T11:54:49.897Z,3.65
2022-09-02T12:00:26.993Z,3.20
2022-09-02T12:03:46.527Z,3.53
2022-09-02T12:06:19.106Z,3.42
2022-09-02T12:08:48.765Z,3.45
2022-09-02T12:11:45.377Z,3.28
2022-09-02T12:14:25.730Z,2.97
2022-09-02T12:17:05.717Z,3.53
2022-09-02T12:27:24.992Z,3.22
2022-09-02T12:29:55.753Z,2.40
2022-09-02T12:32:45.277Z,2.80
2022-09-02T12:35:34.757Z,3.00
2022-09-02T12:38:15.008Z,2.55
2022-09-02T12:41:04.450Z,2.80
2022-09-02T12:52:34.835Z,2.85
2022-09-02T12:55:13.638Z,2.35
2022-09-02T12:57:48.009Z,2.15
2022-09-02T13:00:26.600Z,2.25
2022-09-02T13:03:24.095Z,1.63
2022-09-02T13:05:53.374Z,1.52
2022-09-02T13:08:37.284Z,1.80
2022-09-02T13:19:39.315Z,1.60
2022-09-02T13:22:45.683Z,1.83
2022-09-02T13:25:23.831Z,1.65
2022-09-02T13:28:23.962Z,1.70
2022-09-02T13:31:20.094Z,2.58
2022-09-02T13:34:10.395Z,1.45
2022-09-02T13:39:27.637Z,1.52
2022-09-02T13:41:57.249Z,1.63
2022-09-02T13:44:29.398Z,1.80
2022-09-02T13:47:16.248Z,1.75
2022-09-02T13:49:47.722Z,1.40
2022-09-02T13:53:01.101Z,1.65
2022-09-02T13:55:18.753Z,2.17
2022-09-02T14:03:18.897Z,1.60
2022-09-02T14:05:50.077Z,1.60
2022-09-02T14:08:26.847Z,1.50
2022-09-02T14:10:55.502Z,1.98
2022-09-02T14:13:25.061Z,1.55
2022-09-02T14:16:25.195Z,1.67
2022-09-02T14:24:37.443Z,2.10
2022-09-02T14:27:20.155Z,2.20
2022-09-02T14:29:58.001Z,1.40
2022-09-02T14:32:28.050Z,2.00
2022-09-02T14:35:18.809Z,1.55
2022-09-02T14:37:59.016Z,1.33
2022-09-02T14:40:38.250Z,1.55
2022-09-02T14:48:26.000Z,1.60
2022-09-02T14:51:20.129Z,1.55
2022-09-02T14:53:49.248Z,1.52
2022-09-02T14:56:45.357Z,1.48
2022-09-02T14:59:14.543Z,1.40
2022-09-02T15:01:49.012Z,1.50
2022-09-02T15:09:45.926Z,2.00
2022-09-02T15:12:20.530Z,1.48
2022-09-02T15:14:50.107Z,1.33
2022-09-02T15:17:17.886Z,2.45
2022-09-02T15:19:45.213Z,4.03
2022-09-02T15:22:15.349Z,2.78
2022-09-02T15:24:44.631Z,1.80
2022-09-02T15:27:14.950Z,1.42
2022-09-02T15:34:48.624Z,2.10
2022-09-02T15:37:15.941Z,1.52
2022-09-02T15:39:44.742Z,1.45
2022-09-02T15:42:18.314Z,1.65
2022-09-02T15:44:46.184Z,1.40
2022-09-02T15:47:14.817Z,2.25
2022-09-02T15:49:44.271Z,1.55
2022-09-02T15:57:32.691Z,1.58
2022-09-02T16:00:00.254Z,1.60
2022-09-02T16:02:27.753Z,1.77
2022-09-02T16:04:56.230Z,1.45
2022-09-02T16:07:27.781Z,2.20
2022-09-02T16:09:56.058Z,1.85
2022-09-02T16:12:25.457Z,1.90
2022-09-02T16:19:30.426Z,1.25
2022-09-02T16:22:00.034Z,2.13
2022-09-02T16:24:27.572Z,1.35
2022-09-02T16:26:54.934Z,1.40
2022-09-02T16:29:26.813Z,1.60
2022-09-02T16:32:14.371Z,1.33
2022-09-02T16:34:43.842Z,1.30
2022-09-02T16:42:14.953Z,1.70
2022-09-02T16:44:46.002Z,1.80
2022-09-02T16:47:20.354Z,1.38
2022-09-02T16:49:47.970Z,1.65
2022-09-02T16:52:18.017Z,1.50
2022-09-02T16:54:45.694Z,1.50
2022-09-02T16:57:14.424Z,1.38
2022-09-02T17:02:39.127Z,1.48
2022-09-02T17:05:08.318Z,1.60
2022-09-02T17:07:35.623Z,1.25
2022-09-02T17:10:05.307Z,1.35
2022-09-02T17:15:03.771Z,1.25
2022-09-02T17:17:35.949Z,1.70
2022-09-02T17:20:05.392Z,1.77
2022-09-02T17:30:04.010Z,1.55
2022-09-02T17:32:33.250Z,1.40
2022-09-02T17:35:03.893Z,1.40
2022-09-02T17:37:37.477Z,1.70
2022-09-02T17:40:07.763Z,1.25
2022-09-02T17:42:35.312Z,1.40
2022-09-02T17:45:04.505Z,1.58
2022-09-02T17:50:17.859Z,1.65
2022-09-02T17:52:45.584Z,1.45
2022-09-02T17:55:14.782Z,1.20
2022-09-02T17:58:15.016Z,1.80
2022-09-02T18:00:47.049Z,1.48
2022-09-02T18:03:25.472Z,1.27
2022-09-02T18:11:30.382Z,1.52
2022-09-02T18:14:24.759Z,1.33
2022-09-02T18:17:05.574Z,1.60
2022-09-02T18:20:04.189Z,1.38
2022-09-02T18:22:51.258Z,1.40
2022-09-02T18:25:50.581Z,1.30
2022-09-02T18:31:54.229Z,1.58
2022-09-02T18:34:55.116Z,1.52
2022-09-02T18:37:39.455Z,1.40
2022-09-02T18:40:48.425Z,1.40
2022-09-02T18:43:50.004Z,1.50
2022-09-02T18:46:19.530Z,1.40
2022-09-02T18:48:53.463Z,2.13
2022-09-02T18:57:33.551Z,1.60
2022-09-02T19:00:07.307Z,1.70
2022-09-02T19:03:01.316Z,1.70
2022-09-02T19:05:38.142Z,1.60
2022-09-02T19:08:28.044Z,1.60
2022-09-02T19:11:14.487Z,1.38
2022-09-02T19:18:37.482Z,1.55
2022-09-02T19:21:06.043Z,1.60
2022-09-02T19:23:36.354Z,1.50
2022-09-02T19:26:05.229Z,1.58
2022-09-02T19:28:34.544Z,1.45
2022-09-02T19:31:05.227Z,1.27
2022-09-02T19:33:36.411Z,1.20
2022-09-02T19:36:06.179Z,1.50
2022-09-02T19:43:44.420Z,1.00
2022-09-02T19:46:34.948Z,1.10
2022-09-02T19:49:00.832Z,1.60
2022-09-02T19:51:28.195Z,1.45
2022-09-02T19:53:56.406Z,1.60
2022-09-02T19:56:25.474Z,1.52
2022-09-02T19:58:54.814Z,1.05
2022-09-02T20:01:26.317Z,1.30
2022-09-02T20:09:06.915Z,1.23
2022-09-02T20:11:37.158Z,1.77
2022-09-02T20:14:08.569Z,1.38
2022-09-02T20:16:36.094Z,1.50
2022-09-02T20:19:05.573Z,1.20
2022-09-02T20:21:46.779Z,1.08
2022-09-02T20:24:39.838Z,1.20
2022-09-02T20:31:59.770Z,1.00
2022-09-02T20:34:35.420Z,1.30
2022-09-02T20:37:35.097Z,1.10
2022-09-02T20:40:08.597Z,1.25
2022-09-02T20:42:38.895Z,1.70
2022-09-02T20:45:14.786Z,1.40
2022-09-02T20:48:27.683Z,2.03
2022-09-02T20:56:50.966Z,1.45
2022-09-02T20:59:44.665Z,1.45
2022-09-02T21:02:19.874Z,0.93
2022-09-02T21:05:00.735Z,1.38
2022-09-02T21:07:45.367Z,1.52
2022-09-02T21:10:26.775Z,0.90
2022-09-02T21:13:08.769Z,1.42
2022-09-02T21:21:06.801Z,1.10
2022-09-02T21:23:46.078Z,1.20
2022-09-02T21:26:36.132Z,1.17
2022-09-02T21:29:36.865Z,1.58
2022-09-02T21:32:19.615Z,1.05
2022-09-02T21:35:05.253Z,1.30
2022-09-02T21:37:39.778Z,1.10
2022-09-02T21:46:00.129Z,1.20
2022-09-02T21:48:40.901Z,1.08
2022-09-02T21:51:20.945Z,1.30
2022-09-02T21:54:05.380Z,1.83
2022-09-02T21:56:43.926Z,1.15
2022-09-02T21:59:32.290Z,1.33
2022-09-02T22:12:34.359Z,1.42
2022-09-02T22:15:07.738Z,1.05
2022-09-02T22:17:45.604Z,1.10
2022-09-02T22:20:19.261Z,1.15
2022-09-02T22:22:55.656Z,1.23
2022-09-02T22:25:27.365Z,1.65
2022-09-02T22:28:06.783Z,1.20
2022-09-02T22:38:52.021Z,1.63
2022-09-02T22:41:35.189Z,1.95
2022-09-02T22:44:27.948Z,1.77
2022-09-02T22:47:27.604Z,1.50
2022-09-02T22:50:19.765Z,2.63
2022-09-02T22:52:57.222Z,1.65
2022-09-02T22:55:41.828Z,1.50
2022-09-02T23:04:41.315Z,2.40
2022-09-02T23:07:09.414Z,3.03
2022-09-02T23:09:37.719Z,1.83
2022-09-02T23:12:25.334Z,1.55
2022-09-02T23:15:24.711Z,1.98
2022-09-02T23:17:57.123Z,1.60
2022-09-02T23:20:39.358Z,1.83
2022-09-02T23:29:26.547Z,1.52
2022-09-02T23:32:08.557Z,2.67
2022-09-02T23:35:01.907Z,2.00
2022-09-02T23:37:51.166Z,0.93
2022-09-02T23:40:28.037Z,1.57
2022-09-02T23:42:59.206Z,1.50
2022-09-02T23:45:34.672Z,1.58
2022-09-02T23:54:16.050Z,1.67
2022-09-02T23:57:01.488Z,2.10
2022-09-02T23:59:55.852Z,1.33
